Time;durP1;ratioP1;P1;durP2;ratioP2;P2;SDS_P1;SDS_P2;PMS_P1;PMS_P2;Temp;Humidity;BMP_temperature;BMP_pressure;BME280_temperature;BME280_humidity;BME280_pressure;Samples;Min_cycle;Max_cycle;Signal;HPM_P1;HPM_P2
2020/12/07 00:00:24;;;;;;;31.77;13.00;;;;;;;0.08;73.88;102783.06;1657260;85;21396;-87
2020/12/07 00:02:57;;;;;;;25.75;11.38;;;;;;;0.08;73.65;102786.31;1686692;83;21412;-88
2020/12/07 00:05:31;;;;;;;40.28;15.70;;;;;;;0.00;73.60;102778.82;1696353;83;21352;-89
2020/12/07 00:08:06;;;;;;;38.37;13.73;;;;;;;-0.03;73.64;102782.34;1684091;83;21186;-89
2020/12/07 00:10:39;;;;;;;;;;;;;;;-0.08;73.67;102791.97;1696840;83;21714;-87
2020/12/07 00:13:12;;;;;;;35.70;12.20;;;;;;;-0.15;73.61;102783.45;1662276;85;20251;-90
2020/12/07 00:15:45;;;;;;;38.30;15.75;;;;;;;-0.22;73.63;102775.96;1683248;83;21287;-88
2020/12/07 00:18:17;;;;;;;35.48;13.35;;;;;;;-0.23;73.81;102778.33;1690133;83;21231;-87
2020/12/07 00:20:50;;;;;;;34.73;13.03;;;;;;;-0.20;73.97;102780.28;1662722;85;21354;-89
2020/12/07 00:23:23;;;;;;;34.23;11.38;;;;;;;-0.14;74.45;102774.78;1686165;83;21279;-86
2020/12/07 00:25:56;;;;;;;36.70;15.00;;;;;;;-0.10;75.21;102770.26;1696625;84;21253;-87
2020/12/07 00:28:28;;;;;;;30.77;13.28;;;;;;;-0.04;75.80;102795.63;1706661;84;21340;-87
2020/12/07 00:31:05;;;;;;;30.00;14.03;;;;;;;0.01;75.85;102781.06;1688569;83;21211;-89
2020/12/07 00:33:37;;;;;;;31.13;13.47;;;;;;;0.02;75.85;102774.59;1653165;85;21870;-90
2020/12/07 00:36:10;;;;;;;26.87;10.80;;;;;;;-0.02;75.59;102784.06;1688885;83;21441;-89
2020/12/07 00:38:43;;;;;;;26.25;10.80;;;;;;;-0.06;75.63;102784.00;1690935;84;21349;-89
2020/12/07 00:41:23;;;;;;;33.98;12.00;;;;;;;-0.11;75.95;102788.48;1694734;83;21348;-89
2020/12/07 00:43:56;;;;;;;26.67;11.20;;;;;;;-0.13;76.35;102777.87;1689239;84;21409;-88
2020/12/07 00:46:29;;;;;;;26.50;11.68;;;;;;;-0.12;76.46;102779.59;1655052;85;21845;-90
2020/12/07 00:49:04;;;;;;;36.60;12.05;;;;;;;-0.14;76.64;102776.15;1691456;83;21227;-88
2020/12/07 00:51:37;;;;;;;35.30;11.30;;;;;;;-0.12;77.04;102775.50;1664230;85;21365;-88
2020/12/07 00:54:09;;;;;;;27.55;10.28;;;;;;;-0.08;77.25;102775.59;1691604;83;21374;-89
2020/12/07 00:56:42;;;;;;;26.73;10.75;;;;;;;-0.04;77.48;102766.45;1649514;85;21345;-88
2020/12/07 00:59:17;;;;;;;28.70;11.40;;;;;;;0.03;77.63;102772.22;1689566;83;21534;-88
2020/12/07 01:01:51;;;;;;;33.85;12.25;;;;;;;0.02;77.73;102779.53;1684633;83;21765;-84
2020/12/07 01:04:24;;;;;;;28.07;12.00;;;;;;;0.03;77.57;102766.77;1657503;85;21410;-83
2020/12/07 01:06:58;;;;;;;55.87;14.43;;;;;;;-0.02;77.06;102763.59;1681478;83;21916;-84
2020/12/07 01:09:31;;;;;;;32.53;11.53;;;;;;;-0.06;76.98;102768.98;1672078;83;21385;-83
2020/12/07 01:12:05;;;;;;;28.17;11.87;;;;;;;-0.06;76.92;102768.98;1695500;84;21266;-83
2020/12/07 01:14:40;;;;;;;29.23;10.90;;;;;;;-0.07;77.07;102769.12;1689057;83;21267;-84
2020/12/07 01:17:14;;;;;;;27.93;10.70;;;;;;;-0.10;77.09;102762.92;1690072;83;21353;-83
2020/12/07 01:19:47;;;;;;;29.13;10.17;;;;;;;-0.17;77.28;102768.58;1696718;83;21392;-82
2020/12/07 01:22:22;;;;;;;26.83;11.60;;;;;;;-0.21;77.47;102767.64;1693957;83;21251;-83
2020/12/07 01:24:56;;;;;;;31.73;9.80;;;;;;;-0.18;77.85;102774.20;1696170;83;21359;-83
2020/12/07 01:27:30;;;;;;;24.20;9.37;;;;;;;-0.16;77.56;102777.64;1695453;82;21253;-83
2020/12/07 01:30:06;;;;;;;26.70;11.03;;;;;;;-0.17;77.38;102767.73;1691798;83;21404;-85
2020/12/07 01:32:39;;;;;;;26.83;10.10;;;;;;;-0.19;77.41;102765.63;1686448;83;21374;-83
2020/12/07 01:35:12;;;;;;;27.50;9.93;;;;;;;-0.22;77.67;102827.31;1684819;83;21374;-82
2020/12/07 01:37:44;;;;;;;36.70;12.63;;;;;;;-0.23;77.79;102763.33;1666551;85;21365;-82
2020/12/07 01:40:17;;;;;;;32.98;10.60;;;;;;;-0.23;78.20;102764.20;1678638;83;21298;-83
2020/12/07 01:42:50;;;;;;;32.83;10.48;;;;;;;-0.21;78.24;102756.73;1655466;85;21328;-82
2020/12/07 01:45:23;;;;;;;25.88;9.95;;;;;;;-0.16;78.28;102760.75;1683942;83;21230;-83
2020/12/07 01:47:56;;;;;;;33.30;13.75;;;;;;;-0.12;78.34;102751.29;1660108;85;21365;-83
2020/12/07 01:50:29;;;;;;;30.83;11.27;;;;;;;-0.08;78.06;102747.77;1684352;84;21351;-84
2020/12/07 01:53:02;;;;;;;28.85;12.03;;;;;;;-0.05;77.62;102749.72;1678596;83;21959;-82
2020/12/07 01:55:35;;;;;;;27.52;10.55;;;;;;;-0.05;77.62;102749.72;1678568;83;21250;-83
2020/12/07 01:58:08;;;;;;;40.05;11.78;;;;;;;-0.02;77.55;102749.09;1690305;83;21203;-83
2020/12/07 02:00:41;;;;;;;33.53;12.75;;;;;;;-0.04;77.38;102748.70;1678795;83;21255;-83
2020/12/07 02:03:15;;;;;;;37.33;11.70;;;;;;;-0.01;77.01;102749.80;1690520;83;21426;-83
2020/12/07 02:05:48;;;;;;;26.70;9.73;;;;;;;-0.08;76.74;102758.69;1688087;84;21358;-83
2020/12/07 02:08:21;;;;;;;28.62;11.03;;;;;;;-0.17;76.78;102764.48;1663465;85;21252;-82
2020/12/07 02:10:59;;;;;;;35.07;11.13;;;;;;;-0.19;76.71;102762.05;1686075;83;21201;-82
2020/12/07 02:13:33;;;;;;;32.33;11.87;;;;;;;-0.22;76.52;102745.95;1695535;83;21713;-82
2020/12/07 02:16:06;;;;;;;30.65;10.95;;;;;;;-0.25;76.44;102759.36;1695834;83;21351;-81
2020/12/07 02:18:46;;;;;;;24.20;10.83;;;;;;;-0.27;76.33;102759.14;1688187;83;21680;-81
2020/12/07 02:21:19;;;;;;;26.10;10.88;;;;;;;-0.32;76.35;102769.63;1695723;83;21379;-81
2020/12/07 02:24:03;;;;;;;27.73;11.12;;;;;;;-0.38;76.11;102756.03;1587061;85;21233;-81
2020/12/07 02:26:37;;;;;;;27.50;10.43;;;;;;;-0.43;76.15;102757.46;1651579;85;21370;-82
2020/12/07 02:29:10;;;;;;;28.07;10.80;;;;;;;-0.44;76.34;102756.59;1678248;84;21880;-83
2020/12/07 02:31:48;;;;;;;29.70;11.93;;;;;;;-0.44;76.41;102762.04;1680197;83;21845;-83
2020/12/07 02:34:21;;;;;;;;;;;;;;;-0.46;76.42;102752.27;1662156;85;21422;-82
2020/12/07 02:36:54;;;;;;;23.73;9.60;;;;;;;-0.43;76.52;102762.92;1667620;85;20231;-83
2020/12/07 02:39:28;;;;;;;30.30;11.57;;;;;;;-0.42;76.65;102750.52;1671729;85;21219;-83
2020/12/07 02:42:05;;;;;;;24.37;9.17;;;;;;;-0.42;76.63;102755.97;1694879;84;21294;-84
2020/12/07 02:44:40;;;;;;;22.97;8.80;;;;;;;-0.41;76.73;102744.05;1683522;83;21358;-84
2020/12/07 02:47:14;;;;;;;25.53;10.97;;;;;;;-0.41;76.53;102752.72;1687307;83;21189;-84
2020/12/07 02:49:47;;;;;;;18.85;8.90;;;;;;;-0.45;76.59;102746.68;1684290;83;21401;-83
2020/12/07 02:52:23;;;;;;;25.87;11.23;;;;;;;-0.42;76.89;102749.15;1661850;85;21370;-85
2020/12/07 02:54:59;;;;;;;24.50;10.20;;;;;;;-0.39;76.82;102755.67;1677662;84;21234;-85
2020/12/07 02:57:33;;;;;;;24.53;9.83;;;;;;;-0.39;76.76;102747.48;1678297;84;21239;-84
2020/12/07 03:00:10;;;;;;;26.37;9.90;;;;;;;-0.39;76.82;102741.19;1692799;84;21219;-84
2020/12/07 03:02:44;;;;;;;27.20;10.23;;;;;;;-0.39;76.63;102745.28;1675213;83;21283;-83
2020/12/07 03:05:19;;;;;;;30.77;11.90;;;;;;;-0.44;76.66;102744.31;1687154;84;21209;-83
2020/12/07 03:07:51;;;;;;;30.12;10.58;;;;;;;-0.46;76.78;102741.36;1690584;84;22886;-84
2020/12/07 03:10:24;;;;;;;;;;;;;;;-0.45;76.77;102757.59;1697530;83;21351;-84
2020/12/07 03:12:58;;;;;;;24.33;9.67;;;;;;;-0.46;76.94;102750.91;1701986;83;20631;-82
2020/12/07 03:15:33;;;;;;;26.27;11.63;;;;;;;-0.50;77.13;102740.77;1689269;84;21357;-83
2020/12/07 03:18:08;;;;;;;29.60;12.50;;;;;;;-0.51;77.16;102731.39;1701569;83;21395;-83
2020/12/07 03:20:42;;;;;;;38.97;14.17;;;;;;;-0.50;77.05;102751.69;1689360;83;21342;-83
2020/12/07 03:23:15;;;;;;;26.97;11.50;;;;;;;-0.48;76.97;102737.43;1680079;83;21370;-82
2020/12/07 03:25:48;;;;;;;28.32;11.35;;;;;;;-0.48;76.88;102740.64;1686859;83;21223;-82
2020/12/07 03:28:22;;;;;;;35.73;13.60;;;;;;;-0.51;76.80;102747.23;1683858;83;21331;-82
2020/12/07 03:30:55;;;;;;;37.30;12.80;;;;;;;-0.54;76.39;102761.16;1675067;85;21367;-82
2020/12/07 03:33:28;;;;;;;33.33;14.63;;;;;;;-0.58;76.20;102752.88;1686413;83;21455;-81
2020/12/07 03:36:02;;;;;;;37.35;14.95;;;;;;;-0.59;76.22;102751.16;1660857;85;21779;-83
2020/12/07 03:38:36;;;;;;;35.87;14.67;;;;;;;-0.59;76.11;102768.01;1668018;85;21275;-83
2020/12/07 03:41:09;;;;;;;31.77;13.48;;;;;;;-0.60;75.73;102747.20;1689276;83;21361;-83
2020/12/07 03:43:43;;;;;;;28.27;11.00;;;;;;;-0.68;75.28;102752.49;1692205;83;21285;-84
2020/12/07 03:46:16;;;;;;;32.73;13.43;;;;;;;-0.76;75.09;102763.19;1688779;83;21348;-84
2020/12/07 03:48:50;;;;;;;29.97;13.30;;;;;;;-0.85;74.71;102757.22;1685809;84;21985;-84
2020/12/07 03:51:23;;;;;;;29.35;11.85;;;;;;;-0.94;74.81;102741.17;1681137;83;21361;-83
2020/12/07 03:53:56;;;;;;;29.40;12.40;;;;;;;-0.99;74.76;102746.68;1684063;83;21405;-82
2020/12/07 03:56:28;;;;;;;34.80;13.23;;;;;;;-1.00;75.13;102748.53;1692391;83;21190;-84
2020/12/07 03:59:01;;;;;;;;;;;;;;;-0.97;75.20;102751.00;1694763;82;21350;-85
2020/12/07 04:01:37;;;;;;;35.77;11.83;;;;;;;-0.96;75.10;102742.30;1655453;85;20291;-85
2020/12/07 04:04:15;;;;;;;31.73;11.87;;;;;;;-0.99;75.02;102743.44;1696036;84;21214;-87
2020/12/07 04:06:46;;;;;;;32.03;10.87;;;;;;;-1.02;74.76;102748.30;1688186;84;21400;-87
2020/12/07 04:09:20;;;;;;;35.23;14.20;;;;;;;-1.05;74.98;102744.50;1693266;83;21717;-87
2020/12/07 04:11:53;;;;;;;18.17;8.85;;;;;;;-1.09;74.97;102749.35;1684708;83;21221;-85
2020/12/07 04:14:26;;;;;;;32.65;13.03;;;;;;;-1.13;75.10;102737.47;1674306;85;21370;-85
2020/12/07 04:16:59;;;;;;;34.83;14.03;;;;;;;-1.12;75.44;102735.98;1678448;83;21282;-84
2020/12/07 04:19:32;;;;;;;34.80;13.10;;;;;;;-1.09;75.46;102728.92;1673950;83;21761;-84
2020/12/07 04:22:05;;;;;;;32.25;11.88;;;;;;;-1.11;75.26;102723.23;1699771;83;21900;-85
2020/12/07 04:24:38;;;;;;;38.57;15.60;;;;;;;-1.10;75.31;102729.05;1678658;83;21425;-84
2020/12/07 04:27:10;;;;;;;35.25;14.15;;;;;;;-1.10;75.34;102720.35;1669626;83;21872;-84
2020/12/07 04:29:43;;;;;;;26.45;11.70;;;;;;;-1.11;75.16;102717.78;1681989;84;21392;-85
2020/12/07 04:32:16;;;;;;;27.42;11.60;;;;;;;-1.13;75.21;102709.74;1673060;83;21223;-86
2020/12/07 04:34:49;;;;;;;24.60;10.32;;;;;;;-1.14;75.38;102708.02;1685321;83;21380;-85
2020/12/07 04:37:23;;;;;;;33.80;12.70;;;;;;;-1.13;75.79;102708.87;1686195;83;21352;-85
2020/12/07 04:39:56;;;;;;;28.90;13.03;;;;;;;-1.14;76.11;102701.21;1684281;83;21200;-84
2020/12/07 04:42:28;;;;;;;31.63;12.50;;;;;;;-1.14;76.07;102709.38;1689265;83;21374;-85
2020/12/07 04:45:02;;;;;;;32.25;13.30;;;;;;;-1.16;75.95;102700.98;1696250;83;21368;-85
2020/12/07 04:47:35;;;;;;;23.62;9.30;;;;;;;-1.16;75.93;102700.46;1673755;83;21869;-86
2020/12/07 04:50:09;;;;;;;28.43;11.83;;;;;;;-1.11;75.98;102690.55;1684253;83;21194;-85
2020/12/07 04:52:42;;;;;;;23.47;11.08;;;;;;;-1.11;75.83;102695.99;1674336;83;21364;-83
2020/12/07 04:55:15;;;;;;;31.77;11.78;;;;;;;-1.16;75.73;102687.36;1666320;84;21886;-85
2020/12/07 04:57:48;;;;;;;32.33;14.23;;;;;;;-1.17;75.61;102690.56;1661282;85;21230;-83
2020/12/07 05:00:25;;;;;;;32.53;11.68;;;;;;;-1.16;75.57;102687.36;1678154;85;21364;-83
2020/12/07 05:02:59;;;;;;;27.60;11.73;;;;;;;-1.10;75.74;102683.57;1650208;84;21205;-81
2020/12/07 05:05:32;;;;;;;26.62;11.05;;;;;;;-1.09;75.70;102678.52;1657440;85;21483;-82
2020/12/07 05:08:05;;;;;;;27.67;11.12;;;;;;;-1.11;75.16;102690.02;1677898;85;21560;-82
2020/12/07 05:10:44;;;;;;;33.18;12.85;;;;;;;-1.17;74.87;102688.36;1659265;85;21419;-89
2020/12/07 05:13:31;;;;;;;31.10;13.30;;;;;;;-1.23;74.99;102690.27;1668773;85;21369;-92
2020/12/07 05:16:00;;;;;;;29.70;12.23;;;;;;;-1.26;75.21;102684.59;1650240;85;21355;-87
2020/12/07 05:18:38;;;;;;;30.82;12.47;;;;;;;-1.28;75.35;102682.51;1662460;85;21332;-88
2020/12/07 05:21:10;;;;;;;28.30;11.53;;;;;;;-1.28;75.41;102687.08;1674943;84;21748;-87
2020/12/07 05:23:47;;;;;;;26.65;11.38;;;;;;;-1.28;75.47;102681.63;1660036;84;21351;-88
2020/12/07 05:26:19;;;;;;;24.13;10.23;;;;;;;-1.25;75.65;102681.34;1666769;84;21285;-88
2020/12/07 05:28:54;;;;;;;26.93;10.70;;;;;;;-1.20;75.99;102681.81;1662723;84;21362;-88
2020/12/07 05:31:27;;;;;;;31.47;12.43;;;;;;;-1.20;76.03;102682.69;1648546;84;21407;-89
2020/12/07 05:34:00;;;;;;;34.53;11.68;;;;;;;-1.18;75.89;102683.40;1677199;85;21724;-83
2020/12/07 05:36:32;;;;;;;20.57;8.67;;;;;;;-1.17;75.76;102697.37;1676741;84;21269;-90
2020/12/07 05:39:06;;;;;;;28.45;10.28;;;;;;;-1.16;75.42;102695.53;1683547;84;21565;-88
2020/12/07 05:41:40;;;;;;;29.48;12.23;;;;;;;-1.20;74.91;102700.87;1684957;84;21230;-84
2020/12/07 05:44:13;;;;;;;34.03;13.30;;;;;;;-1.26;74.51;102694.12;1688210;84;21359;-83
2020/12/07 05:46:47;;;;;;;28.00;9.43;;;;;;;-1.35;73.89;102706.32;1695042;84;21888;-83
2020/12/07 05:49:20;;;;;;;26.60;12.17;;;;;;;-1.40;73.92;102705.38;1689940;84;21808;-87
2020/12/07 05:52:05;;;;;;;27.82;11.08;;;;;;;-1.44;73.84;102701.18;1694559;84;21346;-79
2020/12/07 05:54:37;;;;;;;30.87;10.40;;;;;;;-1.47;73.83;102693.26;1691227;84;21767;-83
2020/12/07 05:57:11;;;;;;;31.97;12.28;;;;;;;-1.46;74.00;102702.30;1666084;84;21269;-84
2020/12/07 05:59:46;;;;;;;28.47;11.60;;;;;;;-1.46;73.92;102708.63;1664866;83;21240;-84
2020/12/07 06:02:18;;;;;;;;;;;;;;;-1.44;73.90;102702.53;1680964;85;21696;-82
2020/12/07 06:04:52;;;;;;;27.67;11.80;;;;;;;-1.42;73.93;102692.37;1685668;84;20272;-87
2020/12/07 06:07:28;;;;;;;30.27;12.30;;;;;;;-1.41;73.70;102694.60;1701535;83;21290;-87
2020/12/07 06:10:03;;;;;;;28.07;12.60;;;;;;;-1.45;73.16;102699.94;1696794;84;21907;-90
2020/12/07 06:12:39;;;;;;;32.38;12.82;;;;;;;-1.50;72.96;102703.55;1703081;84;21214;-89
2020/12/07 06:15:12;;;;;;;29.03;11.60;;;;;;;-1.53;72.89;102698.39;1677584;84;21419;-86
2020/12/07 06:17:50;;;;;;;23.75;11.97;;;;;;;-1.57;72.74;102698.28;1678061;83;21350;-84
2020/12/07 06:20:32;;;;;;;28.00;11.70;;;;;;;-1.63;72.71;102705.62;1636504;85;21309;-86
2020/12/07 06:23:04;;;;;;;26.50;11.70;;;;;;;-1.66;72.73;102699.09;1659391;85;21227;-90
2020/12/07 06:25:38;;;;;;;26.95;11.43;;;;;;;-1.70;72.24;102720.27;1648981;85;21381;-81
2020/12/07 06:28:11;;;;;;;26.80;11.73;;;;;;;-1.79;71.56;102711.52;1696254;83;21360;-83
2020/12/07 06:30:43;;;;;;;24.85;11.53;;;;;;;-1.87;71.62;102711.32;1691537;83;21379;-82
2020/12/07 06:33:17;;;;;;;21.87;10.25;;;;;;;-1.94;71.63;102707.40;1669003;85;21363;-83
2020/12/07 06:35:49;;;;;;;;;;;;;;;-1.94;72.23;102722.36;1684571;83;21193;-82
2020/12/07 06:38:22;;;;;;;44.93;12.67;;;;;;;-1.87;72.88;102713.16;1695374;83;20200;-81
2020/12/07 06:40:55;;;;;;;29.15;13.08;;;;;;;-1.83;73.30;102709.20;1676246;83;21400;-81
2020/12/07 06:43:30;;;;;;;30.92;12.85;;;;;;;-1.77;73.29;102711.39;1690695;83;21237;-83
2020/12/07 06:46:03;;;;;;;33.77;13.73;;;;;;;-1.72;73.22;102701.83;1665559;84;21217;-82
2020/12/07 06:48:37;;;;;;;37.23;13.80;;;;;;;-1.67;73.28;102697.37;1699085;83;21351;-81
2020/12/07 06:51:31;;;;;;;34.60;12.70;;;;;;;-1.64;73.37;102699.33;1672837;84;21240;-82
2020/12/07 06:54:13;;;;;;;46.73;13.90;;;;;;;-1.61;73.38;102690.88;1693151;83;21798;-82
2020/12/07 06:56:38;;;;;;;29.30;11.97;;;;;;;-1.56;73.21;102690.48;1688360;83;21491;-83
2020/12/07 06:59:11;;;;;;;31.23;11.53;;;;;;;-1.56;73.05;102687.27;1684451;84;21428;-80
2020/12/07 07:01:53;;;;;;;35.88;12.73;;;;;;;-1.55;72.95;102672.66;1679842;83;22231;-80
2020/12/07 07:04:25;;;;;;;37.23;12.23;;;;;;;-1.56;72.08;102680.95;1690817;83;21213;-81
2020/12/07 07:07:01;;;;;;;27.65;11.95;;;;;;;-1.62;71.65;102678.27;1682590;85;21388;-80
2020/12/07 07:09:35;;;;;;;29.87;11.47;;;;;;;-1.68;71.51;102682.01;1688321;85;21748;-81
2020/12/07 07:12:07;;;;;;;28.47;13.30;;;;;;;-1.74;71.40;102679.81;1658015;85;21201;-80
2020/12/07 07:14:41;;;;;;;25.27;10.60;;;;;;;-1.75;71.61;102677.61;1679060;85;21403;-81
2020/12/07 07:17:14;;;;;;;31.90;10.87;;;;;;;-1.77;71.71;102682.30;1685470;85;21414;-80
2020/12/07 07:19:47;;;;;;;28.17;11.53;;;;;;;-1.83;71.36;102673.30;1678859;85;21357;-82
2020/12/07 07:22:20;;;;;;;36.35;13.40;;;;;;;-1.86;71.49;102672.23;1678259;85;21294;-81
2020/12/07 07:25:07;;;;;;;32.17;12.65;;;;;;;-1.86;71.64;102689.91;1676231;84;21272;-80
2020/12/07 07:30:20;;;;;;;37.93;13.53;;;;;;;-1.81;72.07;102674.06;1679853;84;21305;-82
2020/12/07 07:32:54;;;;;;;34.78;14.28;;;;;;;-1.79;72.19;102663.89;1684158;85;21217;-80
2020/12/07 07:35:29;;;;;;;37.27;13.80;;;;;;;-1.76;72.24;102680.45;1681976;84;21356;-79
2020/12/07 07:38:02;;;;;;;37.93;15.63;;;;;;;-1.72;72.29;102677.33;1688939;84;21849;-82
2020/12/07 07:40:36;;;;;;;51.68;15.25;;;;;;;-1.72;72.13;102677.33;1700428;83;22033;-82
2020/12/07 07:43:11;;;;;;;36.37;12.20;;;;;;;-1.75;71.25;102676.73;1687097;83;21215;-82
2020/12/07 07:45:45;;;;;;;36.33;13.50;;;;;;;-1.82;71.27;102687.30;1681453;83;21353;-80
2020/12/07 07:48:20;;;;;;;31.43;12.13;;;;;;;-1.80;71.27;102692.11;1688177;83;21820;-82
2020/12/07 07:51:32;;;;;;;33.97;12.83;;;;;;;-1.81;71.00;102675.42;1679322;83;21256;-81
2020/12/07 08:16:34;;;;;;;34.93;13.17;;;;;;;-1.96;71.78;102663.63;1683618;83;21414;-79
2020/12/07 08:19:23;;;;;;;38.58;15.83;;;;;;;-1.94;72.00;102667.95;1679723;83;21218;-81
2020/12/07 08:21:56;;;;;;;34.47;14.37;;;;;;;-1.88;72.04;102671.50;1673886;83;21217;-80
2020/12/07 08:24:29;;;;;;;39.75;14.15;;;;;;;-1.82;72.25;102671.45;1677562;84;21218;-81
2020/12/07 08:27:08;;;;;;;41.53;14.30;;;;;;;-1.83;72.18;102668.38;1682112;83;21293;-81
2020/12/07 08:29:42;;;;;;;46.20;15.17;;;;;;;-1.80;72.58;102670.34;1678329;83;21349;-80
2020/12/07 08:32:27;;;;;;;53.63;17.03;;;;;;;-1.73;72.74;102653.84;1678555;83;21254;-80
2020/12/07 08:35:00;;;;;;;40.77;15.33;;;;;;;-1.71;72.56;102648.27;1686095;83;22087;-81
2020/12/07 08:37:35;;;;;;;48.83;14.43;;;;;;;-1.69;72.56;102645.78;1635241;87;21445;-79
2020/12/07 08:40:08;;;;;;;37.07;13.87;;;;;;;-1.63;72.59;102650.69;1632798;85;21293;-81
2020/12/07 08:42:41;;;;;;;30.43;13.50;;;;;;;-1.54;72.46;102649.88;1685769;84;21286;-80
2020/12/07 08:45:14;;;;;;;23.50;10.60;;;;;;;-1.54;72.03;102639.50;1696808;84;21576;-81
2020/12/07 08:47:50;;;;;;;41.83;13.07;;;;;;;-1.60;72.09;102638.16;1681667;83;21220;-83
2020/12/07 08:50:22;;;;;;;33.70;12.13;;;;;;;-1.59;72.32;102633.59;1681049;84;21368;-80
2020/12/07 08:52:55;;;;;;;36.48;14.55;;;;;;;-1.60;72.56;102619.11;1688247;84;21285;-83
2020/12/07 08:55:28;;;;;;;37.33;16.05;;;;;;;-1.68;72.85;102617.56;1684303;83;21198;-82
2020/12/07 08:58:01;;;;;;;46.92;14.95;;;;;;;-1.74;73.09;102619.45;1671745;84;21216;-82
2020/12/07 09:00:36;;;;;;;37.48;15.72;;;;;;;-1.74;73.18;102614.02;1690557;83;21257;-79
2020/12/07 09:03:10;;;;;;;29.93;13.50;;;;;;;-1.72;72.92;102627.50;1694969;83;21348;-86
2020/12/07 09:05:43;;;;;;;43.93;15.60;;;;;;;-1.73;72.88;102599.41;1675595;83;21386;-82
2020/12/07 09:08:16;;;;;;;41.23;15.23;;;;;;;-1.74;73.09;102593.61;1694041;83;21234;-82
2020/12/07 09:10:49;;;;;;;33.23;13.20;;;;;;;-1.73;73.16;102593.97;1686808;84;21447;-81
2020/12/07 09:13:24;;;;;;;48.93;14.03;;;;;;;-1.72;73.29;102590.23;1688980;83;21301;-80
2020/12/07 09:15:57;;;;;;;36.33;15.33;;;;;;;-1.71;73.49;102585.16;1697600;82;21419;-81
2020/12/07 09:18:30;;;;;;;41.50;15.13;;;;;;;-1.69;73.29;102576.38;1686449;83;21205;-81
2020/12/07 09:21:04;;;;;;;39.85;15.68;;;;;;;-1.72;73.63;102574.43;1684078;83;21438;-81
2020/12/07 09:23:38;;;;;;;39.53;15.73;;;;;;;-1.70;74.13;102580.59;1685407;83;21358;-85
2020/12/07 09:26:11;;;;;;;36.45;16.05;;;;;;;-1.67;74.55;102560.77;1683910;83;21895;-86
2020/12/07 09:28:44;;;;;;;36.40;16.05;;;;;;;-1.63;74.33;102567.67;1687923;83;21265;-87
2020/12/07 09:31:17;;;;;;;40.67;17.17;;;;;;;-1.60;74.31;102566.02;1686337;84;21238;-85
2020/12/07 09:33:50;;;;;;;32.98;13.78;;;;;;;-1.57;74.40;102567.61;1683890;83;21331;-86
2020/12/07 09:36:22;;;;;;;37.30;16.97;;;;;;;-1.56;74.69;102574.29;1691550;83;21337;-87
2020/12/07 09:38:55;;;;;;;37.90;14.95;;;;;;;-1.57;74.62;102556.72;1688348;83;21760;-82
2020/12/07 09:41:28;;;;;;;42.62;16.07;;;;;;;-1.60;74.61;102548.33;1702403;82;21317;-82
2020/12/07 09:44:00;;;;;;;37.00;15.87;;;;;;;-1.60;74.78;102543.41;1697885;83;21352;-81
2020/12/07 09:46:33;;;;;;;39.50;14.23;;;;;;;-1.55;75.01;102557.44;1684041;84;21450;-81
2020/12/07 09:49:06;;;;;;;32.67;14.20;;;;;;;-1.51;75.23;102574.75;1687864;83;22577;-84
2020/12/07 09:51:39;;;;;;;32.85;13.40;;;;;;;-1.46;75.47;102565.67;1691918;83;22150;-82
2020/12/07 09:54:11;;;;;;;38.23;14.27;;;;;;;-1.41;75.35;102527.98;1687487;83;21365;-84
2020/12/07 09:56:44;;;;;;;35.30;13.08;;;;;;;-1.41;75.35;102527.98;1689896;83;21729;-85
2020/12/07 09:59:17;;;;;;;24.60;10.40;;;;;;;-1.38;75.84;102549.51;1686857;84;21365;-83
2020/12/07 10:01:55;;;;;;;24.97;10.60;;;;;;;-1.32;76.15;102536.70;1677700;84;21358;-83
2020/12/07 10:04:37;;;;;;;16.77;7.93;;;;;;;-1.28;76.51;102531.34;1658112;85;21301;-82
2020/12/07 10:07:10;;;;;;;24.07;10.65;;;;;;;-1.21;76.84;102539.32;1686285;83;21349;-81
2020/12/07 10:09:43;;;;;;;39.98;12.85;;;;;;;-1.18;77.06;102509.06;1686322;83;21325;-88
2020/12/07 10:12:18;;;;;;;29.67;11.30;;;;;;;-1.14;77.08;102525.50;1683841;83;21278;-82
2020/12/07 10:14:50;;;;;;;28.93;12.73;;;;;;;-1.12;76.81;102524.84;1698265;82;21194;-83
2020/12/07 10:17:26;;;;;;;38.17;13.07;;;;;;;-1.15;76.75;102504.71;1692481;83;21936;-82
2020/12/07 10:20:01;;;;;;;40.70;12.90;;;;;;;-1.14;76.91;102500.10;1690952;83;21230;-88
2020/12/07 10:23:07;;;;;;;;;;;;;;;;;;;;;
2020/12/07 10:25:41;;;;;;;40.07;15.00;;;;;;;-1.09;77.02;102504.14;1639519;85;20222;-82
2020/12/07 10:28:15;;;;;;;33.07;15.87;;;;;;;-1.11;76.88;102511.58;1652859;85;21322;-87
2020/12/07 10:30:48;;;;;;;32.35;14.40;;;;;;;-1.09;76.86;102499.19;1657071;85;21243;-89
2020/12/07 10:33:22;;;;;;;34.75;13.48;;;;;;;-1.13;76.73;102493.16;1656465;85;21270;-87
2020/12/07 10:35:55;;;;;;;47.70;15.73;;;;;;;-1.17;76.94;102497.16;1657601;85;21228;-87
2020/12/07 10:38:30;;;;;;;30.90;14.70;;;;;;;-1.16;77.45;102497.51;1663835;85;21351;-82
2020/12/07 10:41:02;;;;;;;35.17;15.37;;;;;;;-1.13;77.79;102514.95;1685932;85;21347;-86
2020/12/07 10:43:36;;;;;;;26.90;12.15;;;;;;;-1.14;77.92;102506.42;1676311;83;21791;-87
2020/12/07 10:46:13;;;;;;;39.00;15.95;;;;;;;-1.19;77.62;102495.08;1673934;85;21373;-81
2020/12/07 10:48:47;;;;;;;32.33;14.93;;;;;;;-1.23;77.90;102502.33;1683640;84;21388;-88
2020/12/07 10:51:20;;;;;;;37.63;16.75;;;;;;;-1.26;77.92;102495.29;1673542;84;21452;-89
2020/12/07 10:53:55;;;;;;;39.35;16.40;;;;;;;-1.27;77.92;102494.94;1684985;85;21386;-83
2020/12/07 10:56:28;;;;;;;30.60;14.97;;;;;;;-1.28;77.86;102494.58;1683502;85;21194;-89
2020/12/07 10:59:14;;;;;;;37.00;14.97;;;;;;;-1.34;78.40;102495.14;1681089;85;21587;-82
2020/12/07 11:04:47;;;;;;;31.67;15.00;;;;;;;-1.37;78.74;102499.48;1669364;85;21262;-82
2020/12/07 11:07:21;;;;;;;29.00;14.47;;;;;;;-1.37;78.75;102498.13;1682259;85;21351;-83
2020/12/07 11:09:55;;;;;;;29.27;12.23;;;;;;;-1.41;78.88;102501.27;1676067;85;21560;-82
2020/12/07 11:12:28;;;;;;;39.63;16.35;;;;;;;-1.41;79.21;102502.11;1687525;85;21450;-81
2020/12/07 11:15:01;;;;;;;32.42;13.85;;;;;;;-1.36;79.53;102488.11;1689229;85;21784;-81
2020/12/07 11:17:34;;;;;;;36.42;15.83;;;;;;;-1.37;79.82;102486.36;1674193;85;21244;-80
2020/12/07 11:20:06;;;;;;;27.95;14.05;;;;;;;-1.36;79.96;102485.38;1676219;85;21221;-81
2020/12/07 11:22:39;;;;;;;33.33;15.53;;;;;;;-1.36;80.45;102486.22;1681899;85;21688;-82
2020/12/07 11:25:12;;;;;;;31.70;14.53;;;;;;;-1.36;80.45;102486.22;1693444;83;21907;-81
2020/12/07 11:27:48;;;;;;;39.03;15.18;;;;;;;-1.36;81.05;102489.47;1677963;83;21768;-83
2020/12/07 11:30:28;;;;;;;33.00;13.83;;;;;;;-1.33;81.37;102495.48;1685129;83;21664;-81
2020/12/07 11:33:05;;;;;;;32.27;14.80;;;;;;;-1.25;81.59;102498.37;1687307;83;21356;-83
2020/12/07 11:35:39;;;;;;;34.95;14.45;;;;;;;-1.20;81.90;102479.75;1690695;83;21443;-83
2020/12/07 11:38:19;;;;;;;49.98;16.15;;;;;;;-1.17;81.92;102488.98;1691315;82;21268;-82
2020/12/07 11:43:31;;;;;;;36.50;16.67;;;;;;;-1.04;82.08;102480.56;1676202;83;21296;-84
2020/12/07 11:45:53;;;;;;;30.77;13.80;;;;;;;-0.95;82.26;102486.50;1671885;83;21760;-81
2020/12/07 11:48:26;;;;;;;40.23;16.35;;;;;;;-0.86;82.15;102502.02;1689610;83;21250;-85
2020/12/07 11:50:59;;;;;;;31.77;13.48;;;;;;;-0.82;82.11;102497.98;1687671;83;21385;-82
2020/12/07 11:53:32;;;;;;;30.35;12.37;;;;;;;-0.81;82.05;102501.09;1684399;84;21201;-79
2020/12/07 11:56:05;;;;;;;42.60;16.27;;;;;;;-0.78;81.95;102498.06;1682464;84;21295;-79
2020/12/07 11:58:40;;;;;;;38.80;14.90;;;;;;;-0.76;81.88;102486.51;1666380;84;21216;-78
2020/12/07 12:01:13;;;;;;;37.87;16.33;;;;;;;-0.77;81.67;102484.30;1694043;83;21666;-79
2020/12/07 12:03:46;;;;;;;28.98;13.98;;;;;;;-0.77;81.59;102485.66;1689375;84;21258;-78
2020/12/07 12:06:27;;;;;;;34.70;14.20;;;;;;;-0.75;81.63;102486.38;1679474;83;21894;-79
2020/12/07 12:09:00;;;;;;;33.60;15.13;;;;;;;-0.71;81.68;102481.49;1680466;83;22115;-79
2020/12/07 12:11:35;;;;;;;36.42;13.18;;;;;;;-0.67;81.49;102478.84;1679424;83;21330;-79
2020/12/07 12:14:09;;;;;;;34.23;13.67;;;;;;;-0.66;81.47;102486.02;1688573;83;21947;-80
2020/12/07 12:16:42;;;;;;;;;;;;;;;-0.62;81.45;102482.84;1691330;83;21363;-79